SXS65K LROP-LTAI
Flight info
| Callsign | SXS65K |
|---|---|
| Flight time | 1h 32m |
| Altitude | 33000 |
| Route | IDARU DCT NONQE DCT MAXOV DCT MATEL L620 RIXEN UL620 IST UN616 OVACI UT69 BABSA |
| Aircraft | B738/M-SDE2E3FGHIRWXY/LB1 |
Departure
| Time | 2026-05-05 15:13 |
|---|---|
| Airport | Bucharest Henri Coandă International Airport (LROP) |
Arrival
| Time | 2026-05-05 16:45 |
|---|---|
| Airport | Antalya International Airport (LTAI) |
| Time | Latitude | Longitude | Altitude | Speed | Heading |
|---|---|---|---|---|---|
| 2026-05-05 14:34 | 44.57113 | 26.08007 | 315 ft | 0 kts | 174° |
| 2026-05-05 14:59 | 44.57123 | 26.08006 | 315 ft | 4 kts | 174° |
| 2026-05-05 14:59 | 44.57150 | 26.08002 | 314 ft | 4 kts | 174° |
| 2026-05-05 14:59 | 44.57173 | 26.07993 | 315 ft | 4 kts | 131° |
| 2026-05-05 15:00 | 44.57183 | 26.07962 | 316 ft | 4 kts | 89° |
| 2026-05-05 15:00 | 44.57182 | 26.07950 | 316 ft | 1 kts | 84° |
| 2026-05-05 15:00 | 44.57182 | 26.07947 | 316 ft | 0 kts | 84° |
| 2026-05-05 15:03 | 44.57184 | 26.07976 | 316 ft | 7 kts | 84° |
| 2026-05-05 15:03 | 44.57191 | 26.08075 | 317 ft | 12 kts | 83° |
| 2026-05-05 15:04 | 44.57201 | 26.08190 | 317 ft | 12 kts | 84° |
| 2026-05-05 15:04 | 44.57213 | 26.08303 | 317 ft | 12 kts | 77° |
| 2026-05-05 15:04 | 44.57228 | 26.08413 | 317 ft | 11 kts | 83° |
| 2026-05-05 15:04 | 44.57265 | 26.08496 | 318 ft | 11 kts | 8° |
| 2026-05-05 15:05 | 44.57422 | 26.08476 | 319 ft | 13 kts | 354° |
| 2026-05-05 15:05 | 44.57496 | 26.08533 | 319 ft | 13 kts | 76° |
| 2026-05-05 15:05 | 44.57509 | 26.08702 | 319 ft | 23 kts | 84° |
| 2026-05-05 15:06 | 44.57529 | 26.08963 | 318 ft | 28 kts | 84° |
| 2026-05-05 15:06 | 44.57548 | 26.09228 | 317 ft | 26 kts | 84° |
| 2026-05-05 15:06 | 44.57561 | 26.09395 | 317 ft | 25 kts | 84° |
| 2026-05-05 15:06 | 44.57579 | 26.09632 | 317 ft | 24 kts | 83° |
| 2026-05-05 15:07 | 44.57595 | 26.09856 | 316 ft | 23 kts | 84° |
| 2026-05-05 15:07 | 44.57614 | 26.10100 | 316 ft | 28 kts | 84° |
| 2026-05-05 15:07 | 44.57634 | 26.10373 | 315 ft | 27 kts | 84° |
| 2026-05-05 15:07 | 44.57653 | 26.10631 | 314 ft | 26 kts | 84° |
| 2026-05-05 15:08 | 44.57670 | 26.10872 | 314 ft | 24 kts | 84° |
| 2026-05-05 15:08 | 44.57687 | 26.11098 | 313 ft | 23 kts | 84° |
| 2026-05-05 15:08 | 44.57707 | 26.11361 | 312 ft | 32 kts | 84° |
| 2026-05-05 15:08 | 44.57732 | 26.11679 | 312 ft | 32 kts | 84° |
| 2026-05-05 15:09 | 44.57755 | 26.11980 | 310 ft | 30 kts | 84° |
| 2026-05-05 15:09 | 44.57777 | 26.12262 | 311 ft | 28 kts | 84° |
| 2026-05-05 15:09 | 44.57798 | 26.12529 | 310 ft | 27 kts | 84° |
| 2026-05-05 15:09 | 44.57815 | 26.12755 | 309 ft | 16 kts | 83° |
| 2026-05-05 15:10 | 44.57863 | 26.12859 | 309 ft | 14 kts | 5° |
| 2026-05-05 15:10 | 44.57942 | 26.12794 | 309 ft | 13 kts | 324° |
| 2026-05-05 15:10 | 44.57985 | 26.12710 | 310 ft | 9 kts | 269° |
| 2026-05-05 15:10 | 44.57983 | 26.12682 | 310 ft | 0 kts | 263° |
| 2026-05-05 15:12 | 44.57981 | 26.12655 | 308 ft | 13 kts | 263° |
| 2026-05-05 15:13 | 44.57945 | 26.12181 | 311 ft | 84 kts | 264° |
| 2026-05-05 15:13 | 44.57862 | 26.11081 | 311 ft | 144 kts | 264° |
| 2026-05-05 15:13 | 44.57739 | 26.09474 | 471 ft | 181 kts | 264° |
| 2026-05-05 15:13 | 44.57626 | 26.07735 | 1344 ft | 177 kts | 264° |
| 2026-05-05 15:14 | 44.57506 | 26.06030 | 2160 ft | 177 kts | 262° |
| 2026-05-05 15:14 | 44.57356 | 26.04182 | 2530 ft | 205 kts | 262° |
| 2026-05-05 15:14 | 44.57184 | 26.02138 | 2992 ft | 215 kts | 262° |
| 2026-05-05 15:14 | 44.56844 | 26.00071 | 3464 ft | 226 kts | 243° |
| 2026-05-05 15:15 | 44.55751 | 25.98414 | 3845 ft | 240 kts | 210° |
| 2026-05-05 15:15 | 44.54123 | 25.97776 | 4349 ft | 254 kts | 181° |
| 2026-05-05 15:15 | 44.52336 | 25.98361 | 4788 ft | 273 kts | 150° |
| 2026-05-05 15:15 | 44.50920 | 26.00124 | 5552 ft | 276 kts | 122° |
| 2026-05-05 15:16 | 44.50204 | 26.02588 | 6394 ft | 274 kts | 99° |
| 2026-05-05 15:16 | 44.49948 | 26.05231 | 7261 ft | 273 kts | 92° |
| 2026-05-05 15:16 | 44.49774 | 26.07885 | 8081 ft | 275 kts | 91° |
| 2026-05-05 15:16 | 44.49601 | 26.10588 | 8833 ft | 280 kts | 91° |
| 2026-05-05 15:17 | 44.49425 | 26.13328 | 9612 ft | 284 kts | 91° |
| 2026-05-05 15:17 | 44.49242 | 26.16105 | 10342 ft | 290 kts | 91° |
| 2026-05-05 15:17 | 44.49050 | 26.19005 | 10701 ft | 307 kts | 91° |
| 2026-05-05 15:17 | 44.48730 | 26.22010 | 10950 ft | 333 kts | 104° |
| 2026-05-05 15:18 | 44.47701 | 26.25054 | 11140 ft | 358 kts | 115° |
| 2026-05-05 15:18 | 44.46420 | 26.28163 | 11342 ft | 378 kts | 117° |
| 2026-05-05 15:18 | 44.45069 | 26.31374 | 11842 ft | 386 kts | 116° |
| 2026-05-05 15:18 | 44.43712 | 26.34634 | 12539 ft | 388 kts | 116° |
| 2026-05-05 15:19 | 44.42373 | 26.37914 | 13292 ft | 389 kts | 115° |
| 2026-05-05 15:19 | 44.41038 | 26.41242 | 13895 ft | 394 kts | 115° |
| 2026-05-05 15:19 | 44.39702 | 26.44618 | 14448 ft | 399 kts | 115° |
| 2026-05-05 15:19 | 44.38360 | 26.48027 | 15080 ft | 401 kts | 115° |
| 2026-05-05 15:20 | 44.37017 | 26.51453 | 15686 ft | 403 kts | 115° |
| 2026-05-05 15:20 | 44.35669 | 26.54895 | 16265 ft | 406 kts | 115° |
| 2026-05-05 15:20 | 44.34303 | 26.58381 | 16829 ft | 410 kts | 115° |
| 2026-05-05 15:20 | 44.32929 | 26.61886 | 17391 ft | 413 kts | 115° |
| 2026-05-05 15:21 | 44.31541 | 26.65419 | 17957 ft | 416 kts | 116° |
| 2026-05-05 15:21 | 44.30144 | 26.68973 | 18485 ft | 419 kts | 116° |
| 2026-05-05 15:21 | 44.28738 | 26.72541 | 18957 ft | 422 kts | 116° |
| 2026-05-05 15:21 | 44.27318 | 26.76142 | 19428 ft | 425 kts | 116° |
| 2026-05-05 15:22 | 44.25887 | 26.79766 | 19890 ft | 428 kts | 116° |
| 2026-05-05 15:22 | 44.24448 | 26.83406 | 20355 ft | 430 kts | 116° |
| 2026-05-05 15:22 | 44.22995 | 26.87076 | 20800 ft | 433 kts | 116° |
| 2026-05-05 15:22 | 44.21533 | 26.90763 | 21232 ft | 436 kts | 116° |
| 2026-05-05 15:23 | 44.20059 | 26.94476 | 21669 ft | 439 kts | 116° |
| 2026-05-05 15:23 | 44.18574 | 26.98211 | 22110 ft | 442 kts | 116° |
| 2026-05-05 15:23 | 44.17077 | 27.01973 | 22491 ft | 445 kts | 116° |
| 2026-05-05 15:23 | 44.15569 | 27.05759 | 22884 ft | 448 kts | 116° |
| 2026-05-05 15:24 | 44.14068 | 27.09519 | 23289 ft | 451 kts | 116° |
| 2026-05-05 15:24 | 44.12535 | 27.13356 | 23662 ft | 454 kts | 116° |
| 2026-05-05 15:24 | 44.10997 | 27.17200 | 23985 ft | 456 kts | 116° |
| 2026-05-05 15:24 | 44.09450 | 27.21059 | 24316 ft | 458 kts | 116° |
| 2026-05-05 15:25 | 44.07895 | 27.24936 | 24638 ft | 460 kts | 116° |
| 2026-05-05 15:25 | 44.06328 | 27.28836 | 24972 ft | 462 kts | 116° |
| 2026-05-05 15:25 | 44.04754 | 27.32748 | 25294 ft | 464 kts | 116° |
| 2026-05-05 15:25 | 44.03175 | 27.36669 | 25598 ft | 466 kts | 116° |
| 2026-05-05 15:26 | 44.01585 | 27.40611 | 25896 ft | 468 kts | 116° |
| 2026-05-05 15:26 | 43.99993 | 27.44554 | 26182 ft | 470 kts | 116° |
| 2026-05-05 15:26 | 43.98384 | 27.48531 | 26467 ft | 472 kts | 116° |
| 2026-05-05 15:26 | 43.96610 | 27.52374 | 26735 ft | 477 kts | 125° |
| 2026-05-05 15:27 | 43.94371 | 27.55802 | 27045 ft | 482 kts | 134° |
| 2026-05-05 15:27 | 43.91756 | 27.58751 | 27337 ft | 486 kts | 144° |
| 2026-05-05 15:27 | 43.88865 | 27.61174 | 27718 ft | 486 kts | 148° |
| 2026-05-05 15:27 | 43.85934 | 27.63502 | 28166 ft | 484 kts | 148° |
| 2026-05-05 15:28 | 43.83021 | 27.65820 | 28610 ft | 482 kts | 148° |
| 2026-05-05 15:28 | 43.80128 | 27.68151 | 29013 ft | 481 kts | 148° |
| 2026-05-05 15:28 | 43.77282 | 27.70472 | 29375 ft | 480 kts | 148° |
| 2026-05-05 15:28 | 43.74421 | 27.72820 | 29799 ft | 478 kts | 148° |
| 2026-05-05 15:29 | 43.71562 | 27.75171 | 30221 ft | 476 kts | 148° |
| 2026-05-05 15:29 | 43.68727 | 27.77500 | 30659 ft | 472 kts | 148° |
| 2026-05-05 15:29 | 43.65911 | 27.79806 | 31044 ft | 470 kts | 148° |
| 2026-05-05 15:29 | 43.63107 | 27.82145 | 31186 ft | 473 kts | 144° |
| 2026-05-05 15:30 | 43.60510 | 27.84941 | 31332 ft | 473 kts | 136° |
| 2026-05-05 15:30 | 43.58270 | 27.88234 | 31692 ft | 469 kts | 127° |
| 2026-05-05 15:30 | 43.56277 | 27.91770 | 32091 ft | 465 kts | 126° |
| 2026-05-05 15:30 | 43.54313 | 27.95297 | 32377 ft | 465 kts | 126° |
| 2026-05-05 15:31 | 43.52336 | 27.98838 | 32638 ft | 465 kts | 126° |
| 2026-05-05 15:31 | 43.50352 | 28.02367 | 32895 ft | 466 kts | 127° |
| 2026-05-05 15:31 | 43.48357 | 28.05885 | 33052 ft | 467 kts | 127° |
| 2026-05-05 15:32 | 43.44325 | 28.12942 | 33043 ft | 469 kts | 127° |
| 2026-05-05 15:32 | 43.40305 | 28.19938 | 33054 ft | 464 kts | 127° |
| 2026-05-05 15:33 | 43.36307 | 28.26881 | 33070 ft | 462 kts | 127° |
| 2026-05-05 15:33 | 43.32317 | 28.33798 | 33064 ft | 461 kts | 127° |
| 2026-05-05 15:34 | 43.28360 | 28.40642 | 33066 ft | 460 kts | 127° |
| 2026-05-05 15:34 | 43.24374 | 28.47521 | 33081 ft | 460 kts | 127° |
| 2026-05-05 15:35 | 43.20384 | 28.54392 | 33075 ft | 461 kts | 127° |
| 2026-05-05 15:35 | 43.16381 | 28.61267 | 33072 ft | 462 kts | 127° |
| 2026-05-05 15:36 | 43.12364 | 28.68155 | 33075 ft | 463 kts | 127° |
| 2026-05-05 15:36 | 43.08284 | 28.74975 | 33069 ft | 465 kts | 134° |
| 2026-05-05 15:36 | 43.05635 | 28.77523 | 33088 ft | 468 kts | 153° |
| 2026-05-05 15:37 | 43.02552 | 28.78966 | 33059 ft | 472 kts | 169° |
| 2026-05-05 15:37 | 42.99281 | 28.79256 | 33093 ft | 472 kts | 180° |
| 2026-05-05 15:37 | 42.95987 | 28.79158 | 33071 ft | 473 kts | 181° |
| 2026-05-05 15:38 | 42.89397 | 28.78842 | 33065 ft | 474 kts | 181° |
| 2026-05-05 15:38 | 42.82792 | 28.78580 | 33065 ft | 475 kts | 180° |
| 2026-05-05 15:39 | 42.76222 | 28.78386 | 33069 ft | 475 kts | 180° |
| 2026-05-05 15:39 | 42.69604 | 28.78214 | 33076 ft | 476 kts | 180° |
| 2026-05-05 15:40 | 42.62978 | 28.78042 | 33073 ft | 476 kts | 180° |
| 2026-05-05 15:40 | 42.56345 | 28.77867 | 33074 ft | 476 kts | 180° |
| 2026-05-05 15:41 | 42.49723 | 28.77692 | 33072 ft | 476 kts | 180° |
| 2026-05-05 15:41 | 42.43092 | 28.77516 | 33073 ft | 476 kts | 180° |
| 2026-05-05 15:42 | 42.36476 | 28.77342 | 33073 ft | 475 kts | 180° |
| 2026-05-05 15:42 | 42.29864 | 28.77168 | 33072 ft | 475 kts | 180° |
| 2026-05-05 15:43 | 42.23270 | 28.76994 | 33076 ft | 474 kts | 180° |
| 2026-05-05 15:43 | 42.16678 | 28.76822 | 33071 ft | 474 kts | 180° |
| 2026-05-05 15:44 | 42.10090 | 28.76649 | 33072 ft | 473 kts | 180° |
| 2026-05-05 15:44 | 42.03505 | 28.76651 | 33077 ft | 472 kts | 177° |
| 2026-05-05 15:45 | 41.96979 | 28.76992 | 33077 ft | 472 kts | 177° |
| 2026-05-05 15:45 | 41.90418 | 28.77282 | 33072 ft | 472 kts | 178° |
| 2026-05-05 15:46 | 41.83848 | 28.77528 | 33075 ft | 472 kts | 178° |
| 2026-05-05 15:46 | 41.77279 | 28.77792 | 33079 ft | 472 kts | 177° |
| 2026-05-05 15:47 | 41.70715 | 28.78058 | 33079 ft | 472 kts | 177° |
| 2026-05-05 15:47 | 41.64156 | 28.78329 | 33074 ft | 472 kts | 177° |
| 2026-05-05 15:48 | 41.57594 | 28.78599 | 33077 ft | 472 kts | 177° |
| 2026-05-05 15:48 | 41.51031 | 28.78868 | 33071 ft | 471 kts | 177° |
| 2026-05-05 15:49 | 41.44479 | 28.79127 | 33073 ft | 471 kts | 178° |
| 2026-05-05 15:49 | 41.37923 | 28.79360 | 33081 ft | 471 kts | 178° |
| 2026-05-05 15:50 | 41.31370 | 28.79592 | 33081 ft | 470 kts | 178° |
| 2026-05-05 15:50 | 41.24822 | 28.79827 | 33078 ft | 470 kts | 178° |
| 2026-05-05 15:51 | 41.18326 | 28.80086 | 33077 ft | 470 kts | 177° |
| 2026-05-05 15:51 | 41.11781 | 28.80390 | 33073 ft | 470 kts | 177° |
| 2026-05-05 15:52 | 41.05248 | 28.80690 | 33079 ft | 469 kts | 177° |
| 2026-05-05 15:52 | 40.99817 | 28.80934 | 33075 ft | 469 kts | 177° |
| 2026-05-05 15:53 | 40.93327 | 28.81718 | 33076 ft | 468 kts | 167° |
| 2026-05-05 15:53 | 40.86979 | 28.83653 | 33074 ft | 467 kts | 166° |
| 2026-05-05 15:54 | 40.80653 | 28.85644 | 33074 ft | 468 kts | 166° |
| 2026-05-05 15:54 | 40.74302 | 28.87571 | 33075 ft | 469 kts | 167° |
| 2026-05-05 15:55 | 40.67924 | 28.89462 | 33066 ft | 471 kts | 167° |
| 2026-05-05 15:55 | 40.61512 | 28.91350 | 33071 ft | 472 kts | 167° |
| 2026-05-05 15:56 | 40.55131 | 28.93227 | 33075 ft | 474 kts | 167° |
| 2026-05-05 15:56 | 40.48675 | 28.95123 | 33077 ft | 475 kts | 167° |
| 2026-05-05 15:57 | 40.42213 | 28.97019 | 33074 ft | 476 kts | 167° |
| 2026-05-05 15:57 | 40.35746 | 28.98913 | 33072 ft | 477 kts | 168° |
| 2026-05-05 15:58 | 40.29263 | 29.00807 | 33064 ft | 478 kts | 168° |
| 2026-05-05 15:58 | 40.22810 | 29.02688 | 33068 ft | 478 kts | 168° |
| 2026-05-05 15:59 | 40.16311 | 29.04580 | 33066 ft | 479 kts | 168° |
| 2026-05-05 15:59 | 40.09795 | 29.06473 | 33075 ft | 481 kts | 168° |
| 2026-05-05 16:00 | 40.03246 | 29.08372 | 33068 ft | 482 kts | 168° |
| 2026-05-05 16:00 | 39.96688 | 29.10269 | 33068 ft | 484 kts | 169° |
| 2026-05-05 16:01 | 39.90104 | 29.12171 | 33070 ft | 485 kts | 169° |
| 2026-05-05 16:01 | 39.83510 | 29.14072 | 33077 ft | 486 kts | 169° |
| 2026-05-05 16:02 | 39.76935 | 29.16181 | 33052 ft | 488 kts | 162° |
| 2026-05-05 16:02 | 39.70560 | 29.19301 | 33074 ft | 489 kts | 159° |
| 2026-05-05 16:03 | 39.64220 | 29.22557 | 33069 ft | 491 kts | 160° |
| 2026-05-05 16:03 | 39.57880 | 29.25734 | 33084 ft | 491 kts | 160° |
| 2026-05-05 16:04 | 39.51495 | 29.28869 | 33063 ft | 491 kts | 160° |
| 2026-05-05 16:04 | 39.45107 | 29.31985 | 33072 ft | 490 kts | 160° |
| 2026-05-05 16:05 | 39.38716 | 29.35098 | 33066 ft | 491 kts | 160° |
| 2026-05-05 16:05 | 39.32329 | 29.38207 | 33069 ft | 490 kts | 160° |
| 2026-05-05 16:06 | 39.25940 | 29.41311 | 33067 ft | 491 kts | 160° |
| 2026-05-05 16:06 | 39.19549 | 29.44411 | 33072 ft | 491 kts | 160° |
| 2026-05-05 16:07 | 39.13150 | 29.47508 | 33066 ft | 491 kts | 160° |
| 2026-05-05 16:07 | 39.06750 | 29.50600 | 33059 ft | 491 kts | 161° |
| 2026-05-05 16:08 | 39.00340 | 29.53690 | 33072 ft | 492 kts | 161° |
| 2026-05-05 16:08 | 38.93918 | 29.56780 | 33074 ft | 493 kts | 161° |
| 2026-05-05 16:09 | 38.87490 | 29.59868 | 33062 ft | 493 kts | 161° |
| 2026-05-05 16:09 | 38.81068 | 29.62948 | 33071 ft | 492 kts | 161° |
| 2026-05-05 16:10 | 38.74702 | 29.66177 | 33063 ft | 493 kts | 154° |
| 2026-05-05 16:10 | 38.68970 | 29.70978 | 33070 ft | 492 kts | 144° |
| 2026-05-05 16:11 | 38.63399 | 29.76075 | 33053 ft | 492 kts | 145° |
| 2026-05-05 16:12 | 38.52185 | 29.86043 | 33053 ft | 492 kts | 146° |
| 2026-05-05 16:12 | 38.46518 | 29.91040 | 32175 ft | 497 kts | 146° |
| 2026-05-05 16:13 | 38.38022 | 29.98541 | 30062 ft | 495 kts | 146° |
| 2026-05-05 16:13 | 38.35192 | 30.01039 | 29152 ft | 495 kts | 146° |
| 2026-05-05 16:13 | 38.32360 | 30.03536 | 28282 ft | 494 kts | 147° |
| 2026-05-05 16:14 | 38.26707 | 30.08512 | 26489 ft | 494 kts | 147° |
| 2026-05-05 16:14 | 38.21137 | 30.13407 | 25279 ft | 483 kts | 147° |
| 2026-05-05 16:15 | 38.15779 | 30.18109 | 24915 ft | 454 kts | 147° |
| 2026-05-05 16:15 | 38.10710 | 30.22546 | 24541 ft | 431 kts | 147° |
| 2026-05-05 16:16 | 38.05892 | 30.26756 | 24180 ft | 410 kts | 147° |
| 2026-05-05 16:16 | 38.01291 | 30.30776 | 23826 ft | 393 kts | 146° |
| 2026-05-05 16:17 | 37.96974 | 30.34989 | 23071 ft | 388 kts | 143° |
| 2026-05-05 16:17 | 37.94869 | 30.37121 | 22708 ft | 385 kts | 143° |
| 2026-05-05 16:18 | 37.90731 | 30.41264 | 21987 ft | 378 kts | 143° |
| 2026-05-05 16:18 | 37.88666 | 30.43306 | 21625 ft | 375 kts | 143° |
| 2026-05-05 16:18 | 37.84460 | 30.47117 | 20937 ft | 368 kts | 154° |
| 2026-05-05 16:19 | 37.82123 | 30.48359 | 20614 ft | 362 kts | 166° |
| 2026-05-05 16:19 | 37.79712 | 30.49219 | 20284 ft | 358 kts | 167° |
| 2026-05-05 16:19 | 37.74937 | 30.50828 | 19620 ft | 352 kts | 167° |
| 2026-05-05 16:20 | 37.70227 | 30.52444 | 18968 ft | 348 kts | 167° |
| 2026-05-05 16:20 | 37.65666 | 30.54037 | 18662 ft | 333 kts | 167° |
| 2026-05-05 16:21 | 37.61304 | 30.55562 | 18378 ft | 318 kts | 167° |
| 2026-05-05 16:22 | 37.55021 | 30.56002 | 17671 ft | 298 kts | 190° |
| 2026-05-05 16:22 | 37.50957 | 30.55397 | 17094 ft | 294 kts | 189° |
| 2026-05-05 16:23 | 37.46919 | 30.54831 | 16507 ft | 290 kts | 189° |
| 2026-05-05 16:23 | 37.44922 | 30.54553 | 16233 ft | 288 kts | 189° |
| 2026-05-05 16:23 | 37.40963 | 30.54003 | 15671 ft | 285 kts | 189° |
| 2026-05-05 16:24 | 37.38997 | 30.53729 | 15384 ft | 284 kts | 189° |
| 2026-05-05 16:24 | 37.37039 | 30.53457 | 15108 ft | 283 kts | 189° |
| 2026-05-05 16:24 | 37.33144 | 30.52915 | 14571 ft | 280 kts | 188° |
| 2026-05-05 16:25 | 37.31210 | 30.52647 | 14289 ft | 279 kts | 188° |
| 2026-05-05 16:25 | 37.27359 | 30.52113 | 13743 ft | 278 kts | 188° |
| 2026-05-05 16:25 | 37.25438 | 30.51846 | 13441 ft | 277 kts | 188° |
| 2026-05-05 16:26 | 37.21626 | 30.51318 | 12862 ft | 274 kts | 188° |
| 2026-05-05 16:26 | 37.17853 | 30.50796 | 12322 ft | 271 kts | 188° |
| 2026-05-05 16:27 | 37.15977 | 30.50536 | 12027 ft | 271 kts | 188° |
| 2026-05-05 16:27 | 37.14105 | 30.50278 | 11748 ft | 269 kts | 188° |
| 2026-05-05 16:27 | 37.12247 | 30.50039 | 11477 ft | 268 kts | 183° |
| 2026-05-05 16:27 | 37.10454 | 30.50496 | 11195 ft | 270 kts | 152° |
| 2026-05-05 16:28 | 37.09070 | 30.52040 | 10928 ft | 269 kts | 122° |
| 2026-05-05 16:28 | 37.08386 | 30.54185 | 10673 ft | 266 kts | 99° |
| 2026-05-05 16:28 | 37.08145 | 30.56468 | 10418 ft | 263 kts | 95° |
| 2026-05-05 16:28 | 37.07940 | 30.58739 | 10152 ft | 262 kts | 95° |
| 2026-05-05 16:29 | 37.07883 | 30.60998 | 9883 ft | 258 kts | 76° |
| 2026-05-05 16:29 | 37.08632 | 30.62977 | 9624 ft | 249 kts | 45° |
| 2026-05-05 16:29 | 37.09983 | 30.64255 | 9373 ft | 241 kts | 21° |
| 2026-05-05 16:29 | 37.11576 | 30.64794 | 9133 ft | 236 kts | 5° |
| 2026-05-05 16:30 | 37.13207 | 30.65022 | 8886 ft | 236 kts | 3° |
| 2026-05-05 16:30 | 37.14837 | 30.65204 | 8642 ft | 234 kts | 4° |
| 2026-05-05 16:30 | 37.16464 | 30.65405 | 8401 ft | 235 kts | 4° |
| 2026-05-05 16:30 | 37.18068 | 30.65614 | 8156 ft | 234 kts | 5° |
| 2026-05-05 16:31 | 37.19675 | 30.65864 | 7907 ft | 233 kts | 13° |
| 2026-05-05 16:31 | 37.21094 | 30.66819 | 7686 ft | 232 kts | 35° |
| 2026-05-05 16:31 | 37.22399 | 30.68032 | 7446 ft | 235 kts | 34° |
| 2026-05-05 16:31 | 37.23721 | 30.69229 | 7194 ft | 234 kts | 34° |
| 2026-05-05 16:32 | 37.24924 | 30.70595 | 6923 ft | 236 kts | 57° |
| 2026-05-05 16:32 | 37.25619 | 30.72474 | 6721 ft | 239 kts | 64° |
| 2026-05-05 16:32 | 37.26299 | 30.74403 | 6452 ft | 242 kts | 64° |
| 2026-05-05 16:32 | 37.26987 | 30.76332 | 6172 ft | 242 kts | 63° |
| 2026-05-05 16:33 | 37.27673 | 30.78259 | 5881 ft | 241 kts | 65° |
| 2026-05-05 16:33 | 37.27922 | 30.80286 | 5734 ft | 233 kts | 97° |
| 2026-05-05 16:33 | 37.27238 | 30.82043 | 5696 ft | 224 kts | 140° |
| 2026-05-05 16:33 | 37.25840 | 30.82831 | 5677 ft | 220 kts | 171° |
| 2026-05-05 16:34 | 37.24375 | 30.82984 | 5562 ft | 208 kts | 180° |
| 2026-05-05 16:34 | 37.22956 | 30.82974 | 5434 ft | 201 kts | 182° |
| 2026-05-05 16:34 | 37.21571 | 30.82946 | 5249 ft | 195 kts | 182° |
| 2026-05-05 16:34 | 37.20240 | 30.82931 | 5044 ft | 187 kts | 181° |
| 2026-05-05 16:35 | 37.18954 | 30.82925 | 4875 ft | 186 kts | 181° |
| 2026-05-05 16:35 | 37.17695 | 30.82923 | 4704 ft | 179 kts | 181° |
| 2026-05-05 16:35 | 37.16476 | 30.82905 | 4316 ft | 173 kts | 186° |
| 2026-05-05 16:35 | 37.15280 | 30.82757 | 3865 ft | 172 kts | 188° |
| 2026-05-05 16:36 | 37.14096 | 30.82588 | 3478 ft | 172 kts | 188° |
| 2026-05-05 16:36 | 37.12826 | 30.82405 | 3416 ft | 187 kts | 188° |
| 2026-05-05 16:36 | 37.11536 | 30.82147 | 3424 ft | 188 kts | 198° |
| 2026-05-05 16:36 | 37.10378 | 30.81434 | 3379 ft | 186 kts | 220° |
| 2026-05-05 16:37 | 37.09475 | 30.80166 | 3334 ft | 206 kts | 242° |
| 2026-05-05 16:37 | 37.08945 | 30.78517 | 3352 ft | 203 kts | 262° |
| 2026-05-05 16:37 | 37.08990 | 30.76811 | 3277 ft | 200 kts | 289° |
| 2026-05-05 16:37 | 37.09664 | 30.75318 | 3207 ft | 195 kts | 316° |
| 2026-05-05 16:38 | 37.10767 | 30.74428 | 3243 ft | 188 kts | 342° |
| 2026-05-05 16:38 | 37.12064 | 30.74259 | 3159 ft | 191 kts | 6° |
| 2026-05-05 16:38 | 37.13313 | 30.74832 | 3111 ft | 193 kts | 32° |
| 2026-05-05 16:38 | 37.14240 | 30.75999 | 3227 ft | 187 kts | 53° |
| 2026-05-05 16:39 | 37.14810 | 30.77444 | 3203 ft | 186 kts | 69° |
| 2026-05-05 16:39 | 37.15033 | 30.78491 | 3065 ft | 190 kts | 76° |
| 2026-05-05 16:39 | 37.15167 | 30.80153 | 2765 ft | 191 kts | 91° |
| 2026-05-05 16:39 | 37.14921 | 30.81763 | 2806 ft | 191 kts | 111° |
| 2026-05-05 16:40 | 37.14120 | 30.83060 | 2892 ft | 190 kts | 144° |
| 2026-05-05 16:40 | 37.12899 | 30.83696 | 3114 ft | 192 kts | 172° |
| 2026-05-05 16:40 | 37.11578 | 30.83594 | 3368 ft | 192 kts | 200° |
| 2026-05-05 16:40 | 37.10302 | 30.83039 | 3400 ft | 197 kts | 198° |
| 2026-05-05 16:41 | 37.08982 | 30.82632 | 3392 ft | 194 kts | 192° |
| 2026-05-05 16:41 | 37.07669 | 30.82355 | 3408 ft | 189 kts | 192° |
| 2026-05-05 16:41 | 37.06371 | 30.82009 | 3407 ft | 192 kts | 193° |
| 2026-05-05 16:41 | 37.05035 | 30.81657 | 3176 ft | 196 kts | 193° |
| 2026-05-05 16:42 | 37.03725 | 30.81318 | 2786 ft | 189 kts | 192° |
| 2026-05-05 16:42 | 37.02456 | 30.81003 | 2397 ft | 183 kts | 191° |
| 2026-05-05 16:42 | 37.01231 | 30.80797 | 2124 ft | 173 kts | 186° |
| 2026-05-05 16:42 | 37.00081 | 30.80652 | 1898 ft | 161 kts | 186° |
| 2026-05-05 16:43 | 36.98978 | 30.80504 | 1699 ft | 158 kts | 186° |
| 2026-05-05 16:43 | 36.97884 | 30.80353 | 1469 ft | 157 kts | 186° |
| 2026-05-05 16:43 | 36.96804 | 30.80205 | 1271 ft | 155 kts | 186° |
| 2026-05-05 16:43 | 36.95743 | 30.80058 | 1032 ft | 151 kts | 185° |
| 2026-05-05 16:44 | 36.94713 | 30.79917 | 832 ft | 148 kts | 186° |
| 2026-05-05 16:44 | 36.93690 | 30.79778 | 648 ft | 150 kts | 186° |
| 2026-05-05 16:44 | 36.92649 | 30.79632 | 449 ft | 149 kts | 185° |
| 2026-05-05 16:44 | 36.91627 | 30.79493 | 256 ft | 146 kts | 186° |
| 2026-05-05 16:45 | 36.90668 | 30.79358 | 204 ft | 129 kts | 186° |
| 2026-05-05 16:45 | 36.89931 | 30.79257 | 188 ft | 87 kts | 186° |
| 2026-05-05 16:45 | 36.89469 | 30.79192 | 194 ft | 54 kts | 186° |
| 2026-05-05 16:45 | 36.89171 | 30.79156 | 187 ft | 23 kts | 178° |
| 2026-05-05 16:46 | 36.89025 | 30.79224 | 199 ft | 22 kts | 157° |
| 2026-05-05 16:46 | 36.88939 | 30.79280 | 191 ft | 10 kts | 120° |
| 2026-05-05 16:46 | 36.88971 | 30.79344 | 198 ft | 10 kts | 11° |
| 2026-05-05 16:46 | 36.89041 | 30.79354 | 194 ft | 10 kts | 6° |
| 2026-05-05 16:47 | 36.89114 | 30.79364 | 195 ft | 12 kts | 6° |
| 2026-05-05 16:47 | 36.89200 | 30.79376 | 191 ft | 14 kts | 6° |
| 2026-05-05 16:47 | 36.89312 | 30.79392 | 191 ft | 17 kts | 6° |
| 2026-05-05 16:47 | 36.89426 | 30.79407 | 199 ft | 16 kts | 6° |
| 2026-05-05 16:48 | 36.89535 | 30.79422 | 191 ft | 15 kts | 6° |
| 2026-05-05 16:48 | 36.89632 | 30.79436 | 203 ft | 11 kts | 14° |
| 2026-05-05 16:48 | 36.89661 | 30.79517 | 196 ft | 11 kts | 94° |
| 2026-05-05 16:48 | 36.89653 | 30.79612 | 191 ft | 11 kts | 96° |
| 2026-05-05 16:49 | 36.89644 | 30.79703 | 191 ft | 11 kts | 96° |
| 2026-05-05 16:49 | 36.89636 | 30.79791 | 191 ft | 10 kts | 97° |
| 2026-05-05 16:49 | 36.89635 | 30.79870 | 195 ft | 9 kts | 71° |
| 2026-05-05 16:49 | 36.89683 | 30.79906 | 195 ft | 8 kts | 11° |
| 2026-05-05 16:50 | 36.89740 | 30.79914 | 200 ft | 8 kts | 6° |
| 2026-05-05 16:50 | 36.89795 | 30.79922 | 191 ft | 8 kts | 6° |
| 2026-05-05 16:50 | 36.89820 | 30.79964 | 203 ft | 4 kts | 82° |
| 2026-05-05 16:50 | 36.89822 | 30.79997 | 206 ft | 4 kts | 87° |
| 2026-05-05 16:51 | 36.89823 | 30.80013 | 198 ft | 0 kts | 88° |